createdAt,value
2022-12-24T00:02:17.515Z,39.60
2022-12-24T00:04:46.941Z,41.05
2022-12-24T00:07:16.403Z,44.88
2022-12-24T00:09:45.455Z,46.28
2022-12-24T00:12:19.526Z,50.20
2022-12-24T00:14:48.391Z,49.08
2022-12-24T00:17:17.686Z,44.63
2022-12-24T00:19:45.866Z,44.63
2022-12-24T00:22:21.196Z,55.38
2022-12-24T00:24:50.539Z,56.65
2022-12-24T00:27:20.607Z,311.08
2022-12-24T00:29:49.246Z,62.72
2022-12-24T00:32:19.930Z,44.25
2022-12-24T00:34:51.462Z,41.13
2022-12-24T00:37:20.374Z,59.80
2022-12-24T00:39:49.562Z,55.92
2022-12-24T00:42:19.636Z,57.05
2022-12-24T00:44:48.167Z,61.45
2022-12-24T00:47:21.246Z,62.47
2022-12-24T00:49:50.963Z,68.13
2022-12-24T00:52:29.538Z,60.13
2022-12-24T00:55:01.686Z,82.93
2022-12-24T00:57:30.985Z,71.43
2022-12-24T01:00:01.851Z,71.97
2022-12-24T01:02:33.321Z,63.25
2022-12-24T01:05:12.711Z,63.63
2022-12-24T01:07:46.867Z,60.40
2022-12-24T01:13:21.424Z,71.82
2022-12-24T01:15:50.816Z,73.28
2022-12-24T01:18:19.982Z,61.75
2022-12-24T01:20:58.593Z,67.28
2022-12-24T01:23:28.568Z,65.43
2022-12-24T01:26:07.017Z,63.55
2022-12-24T01:28:38.980Z,50.45
2022-12-24T01:31:25.143Z,53.13
2022-12-24T01:33:58.962Z,51.00
2022-12-24T01:36:29.520Z,58.05
2022-12-24T01:39:02.085Z,45.50
2022-12-24T01:42:10.761Z,64.95
2022-12-24T01:44:43.756Z,68.43
2022-12-24T01:47:12.266Z,54.35
2022-12-24T01:49:52.647Z,82.22
2022-12-24T01:52:31.593Z,94.18
2022-12-24T01:55:06.165Z,73.10
2022-12-24T01:57:45.430Z,60.38
2022-12-24T02:00:16.985Z,47.30
2022-12-24T02:02:52.478Z,52.35
2022-12-24T02:05:48.913Z,48.72
2022-12-24T02:08:20.043Z,60.63
2022-12-24T02:10:52.259Z,52.70
2022-12-24T02:13:23.045Z,43.92
2022-12-24T02:15:54.387Z,42.80
2022-12-24T02:18:49.170Z,63.30
2022-12-24T02:22:01.125Z,105.53
2022-12-24T02:25:10.370Z,251.23
2022-12-24T02:28:23.128Z,162.45
2022-12-24T02:31:00.386Z,259.15
2022-12-24T02:33:55.735Z,462.92
2022-12-24T02:36:35.547Z,338.10
2022-12-24T02:39:17.251Z,514.42
2022-12-24T02:42:07.217Z,110.68
2022-12-24T02:44:40.926Z,73.05
2022-12-24T02:47:11.756Z,182.00
2022-12-24T02:49:43.927Z,102.88
2022-12-24T02:52:46.600Z,81.78
2022-12-24T02:55:21.050Z,122.20
2022-12-24T02:59:34.087Z,53.08
2022-12-24T03:02:21.891Z,77.80
2022-12-24T03:05:21.496Z,47.20
2022-12-24T03:08:09.077Z,63.08
2022-12-24T03:10:58.217Z,74.20
2022-12-24T03:13:28.786Z,555.67
2022-12-24T03:15:57.662Z,310.50
2022-12-24T03:18:28.379Z,461.67
2022-12-24T03:20:59.773Z,216.98
2022-12-24T03:23:28.649Z,305.98
2022-12-24T03:26:00.199Z,79.97
2022-12-24T03:28:42.836Z,87.45
2022-12-24T03:31:12.412Z,249.52
2022-12-24T03:33:43.673Z,90.25
2022-12-24T03:36:18.807Z,58.08
2022-12-24T03:38:53.315Z,25.42
2022-12-24T03:41:31.280Z,24.98
2022-12-24T03:43:59.954Z,22.60
2022-12-24T03:46:39.014Z,27.30
2022-12-24T03:49:07.919Z,28.55
2022-12-24T03:51:36.320Z,27.05
2022-12-24T03:54:05.408Z,20.85
2022-12-24T03:56:34.241Z,18.50
2022-12-24T03:59:04.166Z,20.05
2022-12-24T04:01:42.139Z,15.63
2022-12-24T04:04:12.029Z,19.42
2022-12-24T04:06:41.099Z,20.70
2022-12-24T04:09:19.470Z,17.90
2022-12-24T04:11:50.463Z,16.35
2022-12-24T04:14:21.020Z,17.15
2022-12-24T04:16:51.776Z,15.25
2022-12-24T04:19:23.225Z,15.65
2022-12-24T04:21:53.199Z,17.88
2022-12-24T04:24:22.173Z,15.20
2022-12-24T04:26:50.878Z,15.25
2022-12-24T04:29:23.609Z,15.98
2022-12-24T04:31:52.828Z,18.67
2022-12-24T04:34:22.681Z,15.63
2022-12-24T04:36:53.021Z,20.08
2022-12-24T04:39:21.376Z,20.40
2022-12-24T04:41:49.409Z,21.70
2022-12-24T04:44:17.973Z,70.40
2022-12-24T04:46:49.315Z,181.43
2022-12-24T04:49:18.510Z,250.32
2022-12-24T04:51:51.026Z,123.25
2022-12-24T04:54:22.863Z,59.80
2022-12-24T04:56:50.977Z,250.43
2022-12-24T04:59:26.392Z,281.25
2022-12-24T05:04:27.013Z,144.00
2022-12-24T05:06:57.263Z,43.22
2022-12-24T05:09:34.056Z,18.98
2022-12-24T05:12:03.850Z,18.92
2022-12-24T05:14:34.098Z,26.40
2022-12-24T05:17:02.318Z,21.25
2022-12-24T05:19:31.278Z,17.92
2022-12-24T05:22:19.008Z,17.60
2022-12-24T05:25:08.947Z,22.60
2022-12-24T05:27:37.810Z,18.77
2022-12-24T05:30:17.523Z,16.73
2022-12-24T05:32:46.170Z,14.27
2022-12-24T05:35:27.136Z,15.77
2022-12-24T05:38:01.496Z,12.48
2022-12-24T05:40:31.440Z,16.08
2022-12-24T05:43:00.830Z,13.48
2022-12-24T05:45:33.106Z,16.00
2022-12-24T05:48:01.522Z,12.13
2022-12-24T05:50:30.822Z,13.93
2022-12-24T05:53:08.313Z,16.20
2022-12-24T05:55:39.744Z,46.55
2022-12-24T05:58:09.144Z,31.50
2022-12-24T06:00:45.699Z,18.77
2022-12-24T06:03:15.288Z,42.50
2022-12-24T06:05:44.602Z,36.42
2022-12-24T06:08:14.518Z,38.47
2022-12-24T06:10:55.339Z,30.33
2022-12-24T06:13:30.447Z,26.20
2022-12-24T06:16:00.776Z,29.80
2022-12-24T06:18:31.564Z,28.67
2022-12-24T06:21:01.809Z,14.93
2022-12-24T06:23:33.405Z,15.00
2022-12-24T06:26:04.245Z,14.50
2022-12-24T06:28:34.627Z,17.15
2022-12-24T06:31:11.303Z,20.85
2022-12-24T06:33:41.731Z,17.67
2022-12-24T06:36:17.991Z,16.05
2022-12-24T06:38:51.869Z,222.43
2022-12-24T06:41:23.717Z,219.38
2022-12-24T06:43:56.912Z,121.75
2022-12-24T06:46:30.551Z,29.40
2022-12-24T06:49:00.697Z,18.80
2022-12-24T06:51:30.969Z,16.33
2022-12-24T06:53:59.968Z,15.50
2022-12-24T06:56:32.121Z,12.52
2022-12-24T06:59:05.482Z,17.52
2022-12-24T07:01:36.074Z,19.38
2022-12-24T07:04:05.829Z,19.40
2022-12-24T07:06:35.385Z,14.90
2022-12-24T07:09:04.373Z,16.75
2022-12-24T07:11:34.776Z,17.05
2022-12-24T07:14:11.607Z,15.82
2022-12-24T07:16:40.478Z,18.92
2022-12-24T07:19:18.922Z,14.45
2022-12-24T07:21:51.227Z,32.00
2022-12-24T07:24:20.828Z,19.30
2022-12-24T07:26:52.999Z,16.95
2022-12-24T07:29:22.163Z,13.82
2022-12-24T07:31:51.082Z,24.98
2022-12-24T07:34:19.970Z,15.25
2022-12-24T07:36:58.996Z,16.15
2022-12-24T07:39:28.506Z,25.05
2022-12-24T07:41:58.693Z,23.83
2022-12-24T07:44:27.313Z,32.90
2022-12-24T07:46:56.148Z,27.30
2022-12-24T07:49:26.160Z,25.63
2022-12-24T07:51:57.709Z,24.55
2022-12-24T07:54:27.180Z,18.40
2022-12-24T07:56:56.830Z,15.15
2022-12-24T07:59:27.375Z,11.50
2022-12-24T08:01:57.991Z,12.38
2022-12-24T08:04:27.031Z,10.82
2022-12-24T08:07:04.890Z,63.47
2022-12-24T08:09:36.922Z,19.27
2022-12-24T08:12:06.687Z,28.90
2022-12-24T08:14:44.546Z,29.23
2022-12-24T08:17:14.958Z,23.55
2022-12-24T08:19:43.924Z,20.40
2022-12-24T08:22:13.312Z,12.93
2022-12-24T08:24:42.247Z,13.77
2022-12-24T08:27:10.664Z,12.93
2022-12-24T08:29:39.133Z,15.88
2022-12-24T08:32:11.689Z,30.05
2022-12-24T08:34:41.667Z,19.65
2022-12-24T08:37:12.375Z,19.67
2022-12-24T08:39:42.754Z,21.63
2022-12-24T08:42:12.143Z,36.22
2022-12-24T08:44:43.126Z,21.83
2022-12-24T08:47:11.850Z,38.95
2022-12-24T08:49:40.626Z,124.55
2022-12-24T08:52:10.039Z,144.85
2022-12-24T08:54:38.859Z,76.85
2022-12-24T08:57:11.530Z,63.38
2022-12-24T08:59:40.781Z,60.75
2022-12-24T09:02:10.377Z,60.45
2022-12-24T09:04:44.173Z,44.67
2022-12-24T09:07:13.476Z,34.63
2022-12-24T09:09:47.122Z,23.38
2022-12-24T09:12:16.094Z,23.98
2022-12-24T09:14:47.457Z,19.30
2022-12-24T09:17:17.417Z,12.98
2022-12-24T09:19:47.887Z,26.77
2022-12-24T09:22:22.526Z,27.45
2022-12-24T09:24:51.687Z,15.45
2022-12-24T09:27:21.958Z,16.98
2022-12-24T09:29:50.819Z,11.65
2022-12-24T09:32:25.616Z,13.43
2022-12-24T09:34:54.816Z,20.55
2022-12-24T09:37:24.175Z,13.48
2022-12-24T09:39:55.339Z,11.77
2022-12-24T09:42:52.236Z,13.73
2022-12-24T09:45:29.576Z,12.32
2022-12-24T09:48:19.286Z,16.33
2022-12-24T09:51:11.413Z,16.75
2022-12-24T09:53:55.578Z,20.25
2022-12-24T09:56:31.588Z,17.42
2022-12-24T09:59:03.600Z,18.55
2022-12-24T10:01:35.925Z,12.27
2022-12-24T10:04:17.341Z,11.25
2022-12-24T10:06:47.675Z,12.68
2022-12-24T10:09:37.953Z,10.23
2022-12-24T10:12:33.299Z,9.77
2022-12-24T10:15:02.100Z,11.52
2022-12-24T10:17:39.384Z,11.05
2022-12-24T10:20:09.362Z,11.68
2022-12-24T10:22:53.774Z,15.00
2022-12-24T10:25:50.085Z,12.98
2022-12-24T10:28:38.956Z,30.60
2022-12-24T10:31:11.694Z,11.27
2022-12-24T10:33:53.429Z,11.88
2022-12-24T10:36:31.736Z,80.25
2022-12-24T10:39:00.419Z,69.88
2022-12-24T10:41:31.003Z,130.23
2022-12-24T10:44:07.046Z,21.52
2022-12-24T10:46:49.751Z,27.10
2022-12-24T10:49:45.795Z,26.48
2022-12-24T10:52:38.076Z,32.47
2022-12-24T10:55:19.230Z,46.67
2022-12-24T10:58:07.309Z,27.52
2022-12-24T11:03:30.297Z,10.65
2022-12-24T11:06:23.414Z,34.35
2022-12-24T11:08:52.062Z,142.18
2022-12-24T11:11:23.916Z,57.15
2022-12-24T11:13:57.974Z,22.25
2022-12-24T11:16:39.762Z,18.33
2022-12-24T11:19:34.978Z,39.38
2022-12-24T11:22:22.793Z,136.68
2022-12-24T11:25:20.100Z,104.13
2022-12-24T11:27:51.936Z,41.53
2022-12-24T11:30:28.982Z,37.85
2022-12-24T11:33:05.331Z,31.98
2022-12-24T11:35:42.002Z,55.17
2022-12-24T11:38:13.323Z,83.10
2022-12-24T11:40:49.136Z,123.30
2022-12-24T11:43:44.756Z,44.58
2022-12-24T11:46:18.286Z,63.20
2022-12-24T11:51:31.332Z,27.23
2022-12-24T11:54:22.557Z,45.60
2022-12-24T11:56:59.121Z,65.25
2022-12-24T11:59:57.325Z,38.13
2022-12-24T12:02:34.804Z,26.45
2022-12-24T12:05:13.788Z,40.20
2022-12-24T12:07:45.094Z,46.35
2022-12-24T12:10:28.455Z,21.85
2022-12-24T12:13:15.446Z,32.88
2022-12-24T12:16:08.334Z,14.60
2022-12-24T12:18:40.669Z,50.03
2022-12-24T12:21:41.465Z,11.65
2022-12-24T12:24:32.389Z,19.08
2022-12-24T12:27:25.665Z,12.85
2022-12-24T12:30:06.275Z,17.20
2022-12-24T12:32:53.358Z,22.60
2022-12-24T12:35:39.010Z,16.40
2022-12-24T12:38:10.419Z,18.48
2022-12-24T12:41:02.237Z,11.93
2022-12-24T12:43:55.716Z,24.70
2022-12-24T12:46:46.832Z,27.88
2022-12-24T12:49:53.749Z,56.92
2022-12-24T12:52:55.315Z,14.32
2022-12-24T12:55:45.803Z,42.95
2022-12-24T12:58:33.605Z,28.70
2022-12-24T13:01:41.900Z,19.05
2022-12-24T13:04:34.280Z,19.67
2022-12-24T13:07:40.785Z,17.02
2022-12-24T13:10:27.979Z,14.90
2022-12-24T13:13:20.050Z,13.10
2022-12-24T13:16:03.470Z,12.20
2022-12-24T13:19:00.799Z,18.98
2022-12-24T13:21:32.341Z,15.00
2022-12-24T13:24:21.646Z,12.77
2022-12-24T13:30:27.521Z,8.90
2022-12-24T13:32:56.820Z,11.43
2022-12-24T13:35:30.747Z,13.82
2022-12-24T13:38:41.674Z,10.55
2022-12-24T13:41:40.204Z,9.10
2022-12-24T13:44:15.275Z,10.38
2022-12-24T13:46:49.132Z,7.55
2022-12-24T13:49:24.083Z,7.53
2022-12-24T13:52:14.676Z,11.32
2022-12-24T13:54:50.449Z,13.38
2022-12-24T13:57:31.843Z,11.98
2022-12-24T14:00:14.095Z,14.57
2022-12-24T14:03:23.434Z,29.38
2022-12-24T14:09:09.973Z,16.13
2022-12-24T14:11:57.815Z,34.88
2022-12-24T14:17:21.690Z,28.63
2022-12-24T14:19:58.408Z,32.45
2022-12-24T14:22:33.170Z,21.30
2022-12-24T14:28:21.487Z,22.02
2022-12-24T14:34:22.827Z,49.45
2022-12-24T14:36:57.275Z,37.50
2022-12-24T14:39:38.840Z,40.45
2022-12-24T14:42:46.864Z,30.73
2022-12-24T14:45:15.746Z,20.75
2022-12-24T14:48:06.493Z,22.67
2022-12-24T14:51:12.136Z,18.38
2022-12-24T14:57:37.890Z,16.63
2022-12-24T15:00:21.071Z,16.70
2022-12-24T15:02:54.349Z,13.70
2022-12-24T15:05:31.379Z,20.27
2022-12-24T15:08:09.527Z,24.15
2022-12-24T15:10:53.325Z,17.95
2022-12-24T15:13:40.409Z,29.92
2022-12-24T15:16:16.475Z,57.33
2022-12-24T15:18:51.248Z,35.63
2022-12-24T15:21:28.332Z,28.98
2022-12-24T15:24:00.426Z,23.52
2022-12-24T15:26:37.748Z,20.73
2022-12-24T15:29:21.777Z,18.75
2022-12-24T15:32:16.809Z,30.80
2022-12-24T15:34:53.216Z,29.88
2022-12-24T15:37:31.563Z,18.63
2022-12-24T15:40:07.096Z,18.25
2022-12-24T15:42:46.269Z,23.70
2022-12-24T15:45:33.470Z,16.65
2022-12-24T15:48:10.699Z,23.00
2022-12-24T15:50:49.102Z,16.30
2022-12-24T15:53:30.124Z,16.70
2022-12-24T15:56:05.031Z,84.13
2022-12-24T15:58:39.287Z,22.77
2022-12-24T16:01:14.309Z,28.55
2022-12-24T16:04:01.590Z,18.48
2022-12-24T16:06:57.958Z,50.47
2022-12-24T16:09:44.698Z,16.95
2022-12-24T16:12:25.602Z,25.67
2022-12-24T16:14:59.475Z,27.58
2022-12-24T16:17:32.978Z,18.38
2022-12-24T16:20:06.004Z,12.55
2022-12-24T16:22:40.786Z,15.38
2022-12-24T16:25:26.666Z,16.98
2022-12-24T16:28:00.648Z,14.50
2022-12-24T16:30:29.946Z,17.15
2022-12-24T16:32:59.702Z,21.00
2022-12-24T16:35:29.539Z,16.48
2022-12-24T16:37:57.881Z,15.98
2022-12-24T16:40:28.380Z,17.08
2022-12-24T16:43:22.853Z,11.63
2022-12-24T16:45:52.597Z,30.13
2022-12-24T16:48:25.623Z,25.33
2022-12-24T16:50:54.830Z,17.85
2022-12-24T16:53:24.057Z,15.93
2022-12-24T16:55:56.121Z,22.63
2022-12-24T16:58:28.809Z,16.73
2022-12-24T17:01:00.001Z,27.60
2022-12-24T17:03:35.034Z,22.10
2022-12-24T17:06:12.133Z,19.88
2022-12-24T17:08:45.889Z,30.30
2022-12-24T17:11:23.857Z,32.13
2022-12-24T17:13:52.320Z,15.85
2022-12-24T17:16:31.455Z,17.98
2022-12-24T17:19:03.556Z,67.38
2022-12-24T17:21:32.520Z,47.30
2022-12-24T17:24:13.959Z,45.80
2022-12-24T17:26:43.785Z,23.45
2022-12-24T17:29:13.434Z,14.07
2022-12-24T17:34:33.930Z,49.15
2022-12-24T17:37:12.063Z,27.23
2022-12-24T17:39:43.399Z,24.45
2022-12-24T17:42:13.366Z,45.75
2022-12-24T17:44:52.391Z,26.15
2022-12-24T17:47:21.954Z,40.40
2022-12-24T17:49:51.968Z,14.50
2022-12-24T17:52:20.673Z,15.75
2022-12-24T17:54:50.135Z,18.98
2022-12-24T17:57:20.661Z,18.90
2022-12-24T17:59:51.381Z,33.40
2022-12-24T18:02:21.078Z,28.02
2022-12-24T18:05:07.162Z,22.83
2022-12-24T18:07:36.391Z,54.72
2022-12-24T18:10:06.661Z,33.10
2022-12-24T18:12:36.028Z,32.92
2022-12-24T18:15:07.348Z,26.17
2022-12-24T18:17:39.179Z,19.48
2022-12-24T18:20:09.546Z,20.70
2022-12-24T18:22:44.316Z,19.25
2022-12-24T18:25:13.151Z,36.55
2022-12-24T18:27:41.746Z,33.83
2022-12-24T18:33:21.797Z,55.10
2022-12-24T18:35:58.656Z,18.42
2022-12-24T18:38:28.681Z,25.95
2022-12-24T18:41:13.524Z,16.05
2022-12-24T18:43:42.060Z,27.60
2022-12-24T18:46:23.133Z,47.08
2022-12-24T18:48:56.105Z,22.08
2022-12-24T18:51:35.475Z,29.35
2022-12-24T18:54:08.831Z,24.05
2022-12-24T18:56:38.422Z,74.90
2022-12-24T18:59:07.756Z,82.45
2022-12-24T19:01:36.506Z,31.33
2022-12-24T19:04:05.716Z,27.98
2022-12-24T19:06:34.734Z,21.52
2022-12-24T19:09:03.718Z,39.65
2022-12-24T19:11:35.370Z,27.38
2022-12-24T19:14:06.010Z,32.97
2022-12-24T19:16:40.118Z,33.25
2022-12-24T19:19:12.667Z,26.98
2022-12-24T19:21:43.837Z,41.70
2022-12-24T19:24:14.434Z,57.50
2022-12-24T19:26:43.354Z,17.27
2022-12-24T19:29:11.927Z,19.92
2022-12-24T19:31:40.883Z,30.13
2022-12-24T19:34:11.445Z,59.92
2022-12-24T19:36:40.695Z,80.70
2022-12-24T19:39:15.928Z,113.85
2022-12-24T19:42:01.367Z,136.65
2022-12-24T19:44:49.288Z,37.23
2022-12-24T19:47:19.978Z,20.92
2022-12-24T19:49:48.195Z,24.02
2022-12-24T19:52:19.327Z,28.50
2022-12-24T19:54:51.173Z,54.35
2022-12-24T19:57:26.776Z,32.10
2022-12-24T19:59:54.973Z,17.30
2022-12-24T20:02:25.899Z,28.65
2022-12-24T20:04:54.769Z,28.15
2022-12-24T20:07:28.233Z,38.03
2022-12-24T20:09:57.219Z,33.50
2022-12-24T20:12:33.700Z,34.60
2022-12-24T20:15:06.008Z,38.17
2022-12-24T20:17:35.904Z,37.33
2022-12-24T20:20:04.567Z,44.92
2022-12-24T20:25:44.099Z,38.58
2022-12-24T20:28:22.686Z,28.58
2022-12-24T20:31:01.500Z,36.95
2022-12-24T20:33:36.366Z,19.95
2022-12-24T20:36:16.301Z,29.85
2022-12-24T20:38:46.364Z,41.60
2022-12-24T20:41:24.875Z,21.63
2022-12-24T20:43:57.731Z,21.65
2022-12-24T20:46:29.610Z,16.75
2022-12-24T20:49:29.610Z,17.88
2022-12-24T20:52:21.299Z,16.42
2022-12-24T20:54:50.587Z,17.10
2022-12-24T20:57:25.189Z,19.85
2022-12-24T21:00:07.066Z,17.33
2022-12-24T21:02:39.704Z,22.30
2022-12-24T21:05:10.373Z,16.70
2022-12-24T21:07:41.658Z,18.30
2022-12-24T21:10:13.716Z,21.13
2022-12-24T21:12:51.977Z,21.92
2022-12-24T21:15:27.860Z,18.20
2022-12-24T21:18:00.142Z,17.88
2022-12-24T21:20:32.146Z,19.38
2022-12-24T21:23:02.843Z,23.90
2022-12-24T21:25:31.864Z,26.55
2022-12-24T21:28:00.333Z,36.38
2022-12-24T21:30:37.461Z,25.83
2022-12-24T21:33:08.934Z,27.08
2022-12-24T21:35:38.359Z,27.00
2022-12-24T21:38:13.324Z,32.15
2022-12-24T21:40:43.414Z,76.00
2022-12-24T21:43:13.097Z,48.28
2022-12-24T21:45:50.333Z,28.90
2022-12-24T21:48:37.551Z,48.40
2022-12-24T21:51:06.288Z,43.08
2022-12-24T21:53:53.795Z,41.53
2022-12-24T21:56:24.080Z,45.25
2022-12-24T21:58:52.397Z,27.10
2022-12-24T22:04:09.471Z,30.50
2022-12-24T22:06:57.533Z,28.40
2022-12-24T22:09:45.454Z,34.03
2022-12-24T22:12:20.433Z,30.20
2022-12-24T22:14:50.130Z,26.80
2022-12-24T22:17:25.656Z,19.98
2022-12-24T22:19:59.888Z,20.55
2022-12-24T22:22:28.752Z,23.45
2022-12-24T22:24:57.288Z,23.27
2022-12-24T22:27:26.826Z,48.63
2022-12-24T22:29:56.948Z,26.63
2022-12-24T22:32:25.733Z,21.95
2022-12-24T22:34:54.046Z,25.88
2022-12-24T22:37:32.646Z,24.38
2022-12-24T22:40:05.375Z,23.73
2022-12-24T22:42:36.311Z,22.27
2022-12-24T22:45:16.946Z,28.80
2022-12-24T22:47:52.674Z,25.05
2022-12-24T22:50:37.390Z,70.35
2022-12-24T22:53:10.060Z,40.95
2022-12-24T22:55:40.969Z,39.00
2022-12-24T22:58:11.027Z,132.50
2022-12-24T23:00:47.659Z,153.60
2022-12-24T23:03:19.246Z,58.05
2022-12-24T23:06:05.363Z,70.93
2022-12-24T23:08:37.683Z,38.20
2022-12-24T23:11:19.973Z,33.60
2022-12-24T23:14:08.257Z,22.05
2022-12-24T23:16:41.852Z,23.13
2022-12-24T23:19:13.167Z,21.60
2022-12-24T23:21:41.646Z,29.70
2022-12-24T23:24:17.940Z,60.95
2022-12-24T23:26:46.573Z,28.88
2022-12-24T23:29:21.931Z,25.05
2022-12-24T23:31:56.311Z,53.75
2022-12-24T23:34:28.467Z,26.92
2022-12-24T23:37:01.427Z,123.40
2022-12-24T23:42:18.949Z,36.90
2022-12-24T23:44:56.183Z,66.75
2022-12-24T23:47:49.939Z,29.73
2022-12-24T23:50:24.035Z,25.98
2022-12-24T23:52:59.240Z,32.33
2022-12-24T23:58:35.944Z,191.15
